createdAt,value
2018-06-10T00:00:46.787Z,19.23
2018-06-10T00:03:14.084Z,20.80
2018-06-10T00:05:41.345Z,25.70
2018-06-10T00:08:08.610Z,23.53
2018-06-10T00:10:35.976Z,27.00
2018-06-10T00:13:03.257Z,27.37
2018-06-10T00:15:30.497Z,32.20
2018-06-10T00:17:57.742Z,40.30
2018-06-10T00:20:24.992Z,53.60
2018-06-10T00:22:52.255Z,66.77
2018-06-10T00:25:19.493Z,73.83
2018-06-10T00:27:46.748Z,77.03
2018-06-10T00:30:14.017Z,70.40
2018-06-10T00:32:41.252Z,63.90
2018-06-10T00:35:08.548Z,57.30
2018-06-10T00:37:35.812Z,48.67
2018-06-10T00:40:03.120Z,45.00
2018-06-10T00:42:30.367Z,40.90
2018-06-10T00:44:57.603Z,41.17
2018-06-10T00:47:24.847Z,38.97
2018-06-10T00:49:52.339Z,36.77
2018-06-10T00:52:19.600Z,31.37
2018-06-10T00:54:46.817Z,29.90
2018-06-10T00:57:14.044Z,29.37
2018-06-10T00:59:41.251Z,29.47
2018-06-10T01:02:08.480Z,32.43
2018-06-10T01:04:35.729Z,32.67
2018-06-10T01:07:02.943Z,31.50
2018-06-10T01:09:30.544Z,34.20
2018-06-10T01:11:57.768Z,32.73
2018-06-10T01:14:24.989Z,34.27
2018-06-10T01:16:53.533Z,30.33
2018-06-10T01:19:20.851Z,29.90
2018-06-10T01:21:48.099Z,27.67
2018-06-10T01:24:15.294Z,28.60
2018-06-10T01:26:48.597Z,23.63
2018-06-10T01:29:16.576Z,24.07
2018-06-10T01:31:43.800Z,24.90
2018-06-10T01:34:11.007Z,23.70
2018-06-10T01:36:38.333Z,22.67
2018-06-10T01:39:05.985Z,23.77
2018-06-10T01:41:33.313Z,23.10
2018-06-10T01:44:00.569Z,24.97
2018-06-10T01:46:27.895Z,24.07
2018-06-10T01:48:55.112Z,26.03
2018-06-10T01:51:22.387Z,26.50
2018-06-10T01:53:49.655Z,26.60
2018-06-10T01:56:16.933Z,27.50
2018-06-10T01:58:44.267Z,30.80
2018-06-10T02:01:11.552Z,31.77
2018-06-10T02:03:38.823Z,31.77
2018-06-10T02:06:06.072Z,32.93
2018-06-10T02:08:33.300Z,32.20
2018-06-10T02:11:00.553Z,31.83
2018-06-10T02:13:27.808Z,32.60
2018-06-10T02:15:55.030Z,31.80
2018-06-10T02:18:22.304Z,31.93
2018-06-10T02:20:49.623Z,31.73
2018-06-10T02:23:16.879Z,31.13
2018-06-10T02:25:44.233Z,31.23
2018-06-10T02:28:11.479Z,32.90
2018-06-10T02:30:38.835Z,34.00
2018-06-10T02:33:06.105Z,33.60
2018-06-10T02:35:33.368Z,34.10
2018-06-10T02:38:00.643Z,35.90
2018-06-10T02:40:27.910Z,37.63
2018-06-10T02:42:55.149Z,40.80
2018-06-10T02:45:22.380Z,36.33
2018-06-10T02:47:49.611Z,40.57
2018-06-10T02:50:16.831Z,39.67
2018-06-10T02:52:44.145Z,43.27
2018-06-10T02:55:11.348Z,49.17
2018-06-10T02:57:38.779Z,47.10
2018-06-10T03:00:06.001Z,45.70
2018-06-10T03:02:33.219Z,47.17
2018-06-10T03:05:00.465Z,47.60
2018-06-10T03:07:28.101Z,46.70
2018-06-10T03:09:55.389Z,51.63
2018-06-10T03:12:22.607Z,50.57
2018-06-10T03:14:49.787Z,56.70
2018-06-10T03:17:17.019Z,49.07
2018-06-10T03:19:44.323Z,47.97
2018-06-10T03:22:11.540Z,54.40
2018-06-10T03:24:38.801Z,48.97
2018-06-10T03:27:06.012Z,51.07
2018-06-10T03:29:33.268Z,49.10
2018-06-10T03:32:00.497Z,49.47
2018-06-10T03:34:27.725Z,51.50
2018-06-10T03:36:54.952Z,51.40
2018-06-10T03:39:22.143Z,52.57
2018-06-10T03:41:49.352Z,50.40
2018-06-10T03:44:16.548Z,49.90
2018-06-10T03:46:43.852Z,61.23
2018-06-10T03:49:11.039Z,56.87
2018-06-10T03:51:38.314Z,54.10
2018-06-10T03:54:05.580Z,59.43
2018-06-10T03:56:32.818Z,54.03
2018-06-10T03:58:59.972Z,57.90
2018-06-10T04:01:27.189Z,59.83
2018-06-10T04:03:54.835Z,59.43
2018-06-10T04:06:22.039Z,57.83
2018-06-10T04:08:49.239Z,55.27
2018-06-10T04:11:16.473Z,55.07
2018-06-10T04:13:43.753Z,55.10
2018-06-10T04:16:11.024Z,55.37
2018-06-10T04:18:38.235Z,59.47
2018-06-10T04:21:05.592Z,55.80
2018-06-10T04:23:33.733Z,55.43
2018-06-10T04:26:00.943Z,48.37
2018-06-10T04:28:28.183Z,51.53
2018-06-10T04:30:55.600Z,54.80
2018-06-10T04:33:22.802Z,49.67
2018-06-10T04:35:50.000Z,51.27
2018-06-10T04:38:17.183Z,50.60
2018-06-10T04:40:44.425Z,54.67
2018-06-10T04:43:11.627Z,53.00
2018-06-10T04:45:38.989Z,51.53
2018-06-10T04:48:06.195Z,52.70
2018-06-10T04:50:33.371Z,54.00
2018-06-10T04:53:01.088Z,54.47
2018-06-10T04:55:28.364Z,53.20
2018-06-10T04:57:55.548Z,51.03
2018-06-10T05:00:22.734Z,57.10
2018-06-10T05:02:50.267Z,50.30
2018-06-10T05:05:17.516Z,51.90
2018-06-10T05:07:44.815Z,52.47
2018-06-10T05:10:12.008Z,49.90
2018-06-10T05:12:39.378Z,49.83
2018-06-10T05:15:06.564Z,47.53
2018-06-10T05:17:33.755Z,50.77
2018-06-10T05:20:00.996Z,52.80
2018-06-10T05:22:28.167Z,48.73
2018-06-10T05:24:55.449Z,50.80
2018-06-10T05:27:22.680Z,49.07
2018-06-10T05:29:49.874Z,49.63
2018-06-10T05:32:17.083Z,52.70
2018-06-10T05:34:44.388Z,49.50
2018-06-10T05:37:11.609Z,51.20
2018-06-10T05:39:38.937Z,49.77
2018-06-10T05:42:06.128Z,50.23
2018-06-10T05:44:33.650Z,49.10
2018-06-10T05:47:00.876Z,51.60
2018-06-10T05:49:28.063Z,51.57
2018-06-10T05:51:55.271Z,50.83
2018-06-10T05:54:23.879Z,49.43
2018-06-10T05:56:51.068Z,51.63
2018-06-10T05:59:18.276Z,52.90
2018-06-10T06:01:45.682Z,50.60
2018-06-10T06:04:13.803Z,51.07
2018-06-10T06:06:41.048Z,49.67
2018-06-10T06:09:08.232Z,48.70
2018-06-10T06:11:35.439Z,51.00
2018-06-10T06:14:02.607Z,50.07
2018-06-10T06:16:29.803Z,49.83
2018-06-10T06:18:56.976Z,49.00
2018-06-10T06:21:24.276Z,48.80
2018-06-10T06:23:51.480Z,48.77
2018-06-10T06:26:18.684Z,49.40
2018-06-10T06:28:45.884Z,47.00
2018-06-10T06:31:13.158Z,47.00
2018-06-10T06:33:40.360Z,45.93
2018-06-10T06:36:07.598Z,49.60
2018-06-10T06:38:34.811Z,49.97
2018-06-10T06:41:02.001Z,47.57
2018-06-10T06:43:29.179Z,47.03
2018-06-10T06:45:56.374Z,45.20
2018-06-10T06:48:24.518Z,45.70
2018-06-10T06:50:51.704Z,45.60
2018-06-10T06:53:18.915Z,43.07
2018-06-10T06:55:46.203Z,40.20
2018-06-10T06:58:13.431Z,36.60
2018-06-10T07:00:40.665Z,39.63
2018-06-10T07:03:07.883Z,36.87
2018-06-10T07:05:35.116Z,35.20
2018-06-10T07:08:02.311Z,35.40
2018-06-10T07:10:29.551Z,34.67
2018-06-10T07:12:56.776Z,35.33
2018-06-10T07:15:23.986Z,32.60
2018-06-10T07:17:52.771Z,36.63
2018-06-10T07:20:19.980Z,32.97
2018-06-10T07:22:47.207Z,31.87
2018-06-10T07:25:14.477Z,35.20
2018-06-10T07:27:41.708Z,37.00
2018-06-10T07:30:08.975Z,35.20
2018-06-10T07:32:36.317Z,32.57
2018-06-10T07:35:03.611Z,32.07
2018-06-10T07:37:30.808Z,30.50
2018-06-10T07:39:58.029Z,29.43
2018-06-10T07:42:25.241Z,32.03
2018-06-10T07:44:53.856Z,31.10
2018-06-10T07:47:21.551Z,30.70
2018-06-10T07:49:48.726Z,31.00
2018-06-10T07:52:15.870Z,30.53
2018-06-10T07:54:43.143Z,30.83
2018-06-10T07:57:10.323Z,31.70
2018-06-10T07:59:37.505Z,30.43
2018-06-10T08:02:04.947Z,29.10
2018-06-10T08:04:32.319Z,31.10
2018-06-10T08:06:59.768Z,30.27
2018-06-10T08:09:27.166Z,31.07
2018-06-10T08:11:54.612Z,33.77
2018-06-10T08:14:22.003Z,33.20
2018-06-10T08:16:49.406Z,30.70
2018-06-10T08:19:16.799Z,29.90
2018-06-10T08:21:44.604Z,28.77
2018-06-10T08:24:11.993Z,29.50
2018-06-10T08:26:39.429Z,30.37
2018-06-10T08:29:06.804Z,31.03
2018-06-10T08:31:34.220Z,30.37
2018-06-10T08:34:01.636Z,31.53
2018-06-10T08:36:29.072Z,33.47
2018-06-10T08:38:56.548Z,35.23
2018-06-10T08:41:24.028Z,39.23
2018-06-10T08:43:51.509Z,36.67
2018-06-10T08:46:18.868Z,35.17
2018-06-10T08:48:46.277Z,35.73
2018-06-10T08:51:13.694Z,36.03
2018-06-10T08:53:41.067Z,36.70
2018-06-10T08:56:08.548Z,33.63
2018-06-10T08:58:35.915Z,34.97
2018-06-10T09:01:03.320Z,30.10
2018-06-10T09:03:30.759Z,27.40
2018-06-10T09:05:58.228Z,33.80
2018-06-10T09:08:25.667Z,35.27
2018-06-10T09:10:53.012Z,34.50
2018-06-10T09:13:20.359Z,36.73
2018-06-10T09:15:47.781Z,34.30
2018-06-10T09:18:15.116Z,35.23
2018-06-10T09:20:42.487Z,34.70
2018-06-10T09:23:09.824Z,33.37
2018-06-10T09:25:37.159Z,33.70
2018-06-10T09:28:04.818Z,33.20
2018-06-10T09:30:32.180Z,34.43
2018-06-10T09:32:59.564Z,32.93
2018-06-10T09:35:27.025Z,33.67
2018-06-10T09:37:54.486Z,32.90
2018-06-10T09:40:21.855Z,34.60
2018-06-10T09:42:49.255Z,35.40
2018-06-10T09:45:16.785Z,35.83
2018-06-10T09:47:44.248Z,35.73
2018-06-10T09:50:11.779Z,36.07
2018-06-10T09:52:39.207Z,35.23
2018-06-10T09:55:06.607Z,37.03
2018-06-10T09:57:33.956Z,38.70
2018-06-10T10:00:01.287Z,37.30
2018-06-10T10:02:28.669Z,35.20
2018-06-10T10:04:56.135Z,35.73
2018-06-10T10:07:23.506Z,36.13
2018-06-10T10:09:50.844Z,35.33
2018-06-10T10:12:18.208Z,34.90
2018-06-10T10:14:45.562Z,34.57
2018-06-10T10:17:13.076Z,36.20
2018-06-10T10:19:40.485Z,39.17
2018-06-10T10:22:07.915Z,37.00
2018-06-10T10:24:35.355Z,39.20
2018-06-10T10:27:02.743Z,37.33
2018-06-10T10:29:30.127Z,35.00
2018-06-10T10:31:57.670Z,34.33
2018-06-10T10:34:25.043Z,34.53
2018-06-10T10:36:52.451Z,35.17
2018-06-10T10:39:19.871Z,34.87
2018-06-10T10:41:47.263Z,35.90
2018-06-10T10:44:14.658Z,36.60
2018-06-10T10:46:42.000Z,35.63
2018-06-10T10:49:09.367Z,35.57
2018-06-10T10:51:36.785Z,31.03
2018-06-10T10:54:04.400Z,29.97
2018-06-10T10:56:31.800Z,33.83
2018-06-10T10:58:59.196Z,31.07
2018-06-10T11:01:26.594Z,29.50
2018-06-10T11:03:53.999Z,24.27
2018-06-10T11:06:21.696Z,27.07
2018-06-10T11:08:49.080Z,31.83
2018-06-10T11:11:16.528Z,30.10
2018-06-10T11:13:43.939Z,29.53
2018-06-10T11:16:11.595Z,31.20
2018-06-10T11:18:39.006Z,29.70
2018-06-10T11:21:06.522Z,31.30
2018-06-10T11:23:33.910Z,31.53
2018-06-10T11:26:01.280Z,30.20
2018-06-10T11:28:28.648Z,32.43
2018-06-10T11:30:56.006Z,31.23
2018-06-10T11:33:23.383Z,31.43
2018-06-10T11:35:50.800Z,33.53
2018-06-10T11:38:18.196Z,30.97
2018-06-10T11:40:45.711Z,33.03
2018-06-10T11:43:13.156Z,30.60
2018-06-10T11:45:40.604Z,30.27
2018-06-10T11:48:08.055Z,28.07
2018-06-10T11:50:35.456Z,28.20
2018-06-10T11:53:02.859Z,29.47
2018-06-10T11:55:30.268Z,29.63
2018-06-10T11:57:57.689Z,29.77
2018-06-10T12:00:25.168Z,29.07
2018-06-10T12:02:52.556Z,33.37
2018-06-10T12:05:20.007Z,32.07
2018-06-10T12:07:47.428Z,28.90
2018-06-10T12:10:14.837Z,28.57
2018-06-10T12:12:42.349Z,31.10
2018-06-10T12:15:14.419Z,32.13
2018-06-10T12:17:41.774Z,32.33
2018-06-10T12:20:09.215Z,32.83
2018-06-10T12:22:36.796Z,35.10
2018-06-10T12:25:04.180Z,33.40
2018-06-10T12:27:31.764Z,32.83
2018-06-10T12:29:59.138Z,33.40
2018-06-10T12:32:27.820Z,33.83
2018-06-10T12:34:55.232Z,34.17
2018-06-10T12:37:22.982Z,34.07
2018-06-10T12:39:50.424Z,33.33
2018-06-10T12:42:17.856Z,33.67
2018-06-10T12:44:45.447Z,32.57
2018-06-10T12:47:12.862Z,32.53
2018-06-10T12:49:40.579Z,31.00
2018-06-10T12:52:07.915Z,30.30
2018-06-10T12:54:35.291Z,28.57
2018-06-10T12:57:02.740Z,30.37
2018-06-10T12:59:30.205Z,26.63
2018-06-10T13:01:57.615Z,25.67
2018-06-10T13:04:25.591Z,24.07
2018-06-10T13:06:53.072Z,25.27
2018-06-10T13:09:20.995Z,25.30
2018-06-10T13:11:48.504Z,23.77
2018-06-10T13:14:15.995Z,21.67
2018-06-10T13:16:43.574Z,23.20
2018-06-10T13:19:10.969Z,26.30
2018-06-10T13:21:38.379Z,21.27
2018-06-10T13:24:11.636Z,25.20
2018-06-10T13:26:39.149Z,34.77
2018-06-10T13:29:06.616Z,26.60
2018-06-10T13:31:34.065Z,27.03
2018-06-10T13:34:01.517Z,26.40
2018-06-10T13:36:33.592Z,27.73
2018-06-10T13:39:01.003Z,26.20
2018-06-10T13:41:28.443Z,26.20
2018-06-10T13:43:55.857Z,29.13
2018-06-10T13:46:23.272Z,27.23
2018-06-10T13:48:50.754Z,26.53
2018-06-10T13:51:18.246Z,31.00
2018-06-10T13:53:47.247Z,27.40
2018-06-10T13:56:14.672Z,26.27
2018-06-10T13:58:42.128Z,26.97
2018-06-10T14:01:09.556Z,32.30
2018-06-10T14:03:36.993Z,33.60
2018-06-10T14:08:36.990Z,25.37
2018-06-10T14:11:04.455Z,28.10
2018-06-10T14:13:31.897Z,29.53
2018-06-10T14:15:59.335Z,33.50
2018-06-10T14:18:26.777Z,29.60
2018-06-10T14:20:54.477Z,40.30
2018-06-10T14:23:21.891Z,62.00
2018-06-10T14:25:49.312Z,28.07
2018-06-10T14:28:16.849Z,26.50
2018-06-10T14:30:47.826Z,26.83
2018-06-10T14:33:15.215Z,27.23
2018-06-10T14:35:42.641Z,22.57
2018-06-10T14:38:10.662Z,22.37
2018-06-10T14:40:38.134Z,22.37
2018-06-10T14:43:09.430Z,20.20
2018-06-10T14:45:36.982Z,20.70
2018-06-10T14:48:04.442Z,21.43
2018-06-10T14:50:31.858Z,20.70
2018-06-10T14:52:59.264Z,20.50
2018-06-10T14:55:31.592Z,19.57
2018-06-10T14:57:59.047Z,19.40
2018-06-10T15:00:26.543Z,18.07
2018-06-10T15:02:53.978Z,19.63
2018-06-10T15:05:21.583Z,18.07
2018-06-10T15:07:49.070Z,18.40
2018-06-10T15:10:18.256Z,19.77
2018-06-10T15:12:45.887Z,20.00
2018-06-10T15:15:14.359Z,18.20
2018-06-10T15:17:41.981Z,17.40
2018-06-10T15:20:09.548Z,18.23
2018-06-10T15:22:37.052Z,18.20
2018-06-10T15:25:04.914Z,17.63
2018-06-10T15:27:32.316Z,16.23
2018-06-10T15:29:59.843Z,19.17
2018-06-10T15:32:27.721Z,18.87
2018-06-10T15:34:55.088Z,18.57
2018-06-10T15:37:22.547Z,18.63
2018-06-10T15:39:49.992Z,18.40
2018-06-10T15:42:17.481Z,18.30
2018-06-10T15:44:45.068Z,17.87
2018-06-10T15:47:12.462Z,18.13
2018-06-10T15:49:39.895Z,18.00
2018-06-10T15:52:07.277Z,20.70
2018-06-10T15:54:34.668Z,19.33
2018-06-10T15:57:02.052Z,17.93
2018-06-10T15:59:29.783Z,17.70
2018-06-10T16:01:57.188Z,20.00
2018-06-10T16:04:24.564Z,18.67
2018-06-10T16:06:52.007Z,19.07
2018-06-10T16:09:19.404Z,19.60
2018-06-10T16:11:46.770Z,19.30
2018-06-10T16:14:14.149Z,17.33
2018-06-10T16:16:41.728Z,17.80
2018-06-10T16:19:09.095Z,18.00
2018-06-10T16:21:36.549Z,19.43
2018-06-10T16:24:03.984Z,18.83
2018-06-10T16:26:31.474Z,18.27
2018-06-10T16:28:58.840Z,19.33
2018-06-10T16:31:26.228Z,19.33
2018-06-10T16:33:53.642Z,19.20
2018-06-10T16:36:21.035Z,18.27
2018-06-10T16:38:49.580Z,18.17
2018-06-10T16:41:17.092Z,17.00
2018-06-10T16:43:44.461Z,16.23
2018-06-10T16:46:11.977Z,16.73
2018-06-10T16:48:39.522Z,16.27
2018-06-10T16:51:07.412Z,17.73
2018-06-10T16:53:34.775Z,18.47
2018-06-10T16:56:03.530Z,20.23
2018-06-10T16:58:30.973Z,20.30
2018-06-10T17:00:58.432Z,18.73
2018-06-10T17:03:28.872Z,18.93
2018-06-10T17:05:56.360Z,18.97
2018-06-10T17:08:23.768Z,18.00
2018-06-10T17:10:51.416Z,18.53
2018-06-10T17:13:18.895Z,17.47
2018-06-10T17:15:46.327Z,18.53
2018-06-10T17:18:14.832Z,18.73
2018-06-10T17:20:42.356Z,17.47
2018-06-10T17:23:09.746Z,18.37
2018-06-10T17:25:37.105Z,19.20
2018-06-10T17:28:04.824Z,19.07
2018-06-10T17:30:32.250Z,19.07
2018-06-10T17:32:59.709Z,19.20
2018-06-10T17:35:27.101Z,19.47
2018-06-10T17:37:54.529Z,19.40
2018-06-10T17:40:21.988Z,18.80
2018-06-10T17:42:50.417Z,17.67
2018-06-10T17:45:17.944Z,18.27
2018-06-10T17:47:45.991Z,17.57
2018-06-10T17:50:13.436Z,18.43
2018-06-10T17:52:41.101Z,18.23
2018-06-10T17:55:08.692Z,18.60
2018-06-10T17:57:36.116Z,17.83
2018-06-10T18:00:03.652Z,17.80
2018-06-10T18:02:31.027Z,19.20
2018-06-10T18:04:58.515Z,16.47
2018-06-10T18:07:25.900Z,15.93
2018-06-10T18:09:53.323Z,17.90
2018-06-10T18:12:21.049Z,15.90
2018-06-10T18:14:48.444Z,17.77
2018-06-10T18:17:15.895Z,18.00
2018-06-10T18:19:43.360Z,17.23
2018-06-10T18:22:11.008Z,17.10
2018-06-10T18:24:38.449Z,16.70
2018-06-10T18:27:05.857Z,16.63
2018-06-10T18:29:34.054Z,20.17
2018-06-10T18:32:01.486Z,15.93
2018-06-10T18:34:29.225Z,17.87
2018-06-10T18:36:56.785Z,16.03
2018-06-10T18:39:24.545Z,16.63
2018-06-10T18:41:52.083Z,17.67
2018-06-10T18:44:19.472Z,17.87
2018-06-10T18:46:46.869Z,17.40
2018-06-10T18:49:14.334Z,17.80
2018-06-10T18:51:41.783Z,16.87
2018-06-10T18:54:09.241Z,16.37
2018-06-10T18:56:36.604Z,16.63
2018-06-10T18:59:04.163Z,15.50
2018-06-10T19:01:31.619Z,16.87
2018-06-10T19:03:59.061Z,15.90
2018-06-10T19:06:26.404Z,17.83
2018-06-10T19:08:53.842Z,17.47
2018-06-10T19:11:21.225Z,16.43
2018-06-10T19:13:48.620Z,17.17
2018-06-10T19:16:15.973Z,17.40
2018-06-10T19:18:43.428Z,18.33
2018-06-10T19:21:10.873Z,17.63
2018-06-10T19:23:38.236Z,18.20
2018-06-10T19:26:05.654Z,16.33
2018-06-10T19:28:33.079Z,18.07
2018-06-10T19:31:00.436Z,18.63
2018-06-10T19:33:27.827Z,18.40
2018-06-10T19:35:55.188Z,17.73
2018-06-10T19:38:22.593Z,17.30
2018-06-10T19:40:49.978Z,19.00
2018-06-10T19:43:17.528Z,18.30
2018-06-10T19:45:45.016Z,17.73
2018-06-10T19:48:12.566Z,19.30
2018-06-10T19:50:39.944Z,17.87
2018-06-10T19:53:07.320Z,17.37
2018-06-10T19:55:34.854Z,17.90
2018-06-10T19:58:02.448Z,18.00
2018-06-10T20:00:29.970Z,18.43
2018-06-10T20:02:57.387Z,17.60
2018-06-10T20:05:24.828Z,18.30
2018-06-10T20:07:52.252Z,17.87
2018-06-10T20:10:19.812Z,18.20
2018-06-10T20:12:47.251Z,19.80
2018-06-10T20:15:14.926Z,16.67
2018-06-10T20:17:42.304Z,18.83
2018-06-10T20:20:09.721Z,20.20
2018-06-10T20:22:37.283Z,20.00
2018-06-10T20:25:04.908Z,19.70
2018-06-10T20:27:32.303Z,20.47
2018-06-10T20:29:59.762Z,18.73
2018-06-10T20:32:27.124Z,18.90
2018-06-10T20:34:54.606Z,20.63
2018-06-10T20:37:23.539Z,20.23
2018-06-10T20:39:50.971Z,19.80
2018-06-10T20:42:18.363Z,22.37
2018-06-10T20:44:45.736Z,19.80
2018-06-10T20:47:13.280Z,20.57
2018-06-10T20:49:40.820Z,21.47
2018-06-10T20:52:08.235Z,20.63
2018-06-10T20:54:35.836Z,20.40
2018-06-10T20:57:03.269Z,21.43
2018-06-10T20:59:30.839Z,21.33
2018-06-10T21:01:58.383Z,22.63
2018-06-10T21:04:25.816Z,20.27
2018-06-10T21:06:53.363Z,21.63
2018-06-10T21:09:20.763Z,22.60
2018-06-10T21:11:48.556Z,23.10
2018-06-10T21:14:16.000Z,22.73
2018-06-10T21:16:44.235Z,23.50
2018-06-10T21:19:11.764Z,23.93
2018-06-10T21:21:39.515Z,25.67
2018-06-10T21:24:07.056Z,24.70
2018-06-10T21:26:34.467Z,24.70
2018-06-10T21:29:01.876Z,26.50
2018-06-10T21:31:29.276Z,22.87
2018-06-10T21:33:56.675Z,25.63
2018-06-10T21:36:25.048Z,24.50
2018-06-10T21:38:52.528Z,25.63
2018-06-10T21:41:20.051Z,27.03
2018-06-10T21:43:47.477Z,26.57
2018-06-10T21:46:14.975Z,25.60
2018-06-10T21:48:42.380Z,27.73
2018-06-10T21:51:09.811Z,29.73
2018-06-10T21:53:37.274Z,28.17
2018-06-10T21:56:05.307Z,28.53
2018-06-10T21:58:32.802Z,28.67
2018-06-10T22:01:00.196Z,29.70
2018-06-10T22:03:27.622Z,27.70
2018-06-10T22:05:55.084Z,27.97
2018-06-10T22:08:22.631Z,26.77
2018-06-10T22:10:50.035Z,28.17
2018-06-10T22:13:17.460Z,27.07
2018-06-10T22:15:46.387Z,27.93
2018-06-10T22:18:16.629Z,26.67
2018-06-10T22:20:44.789Z,25.80
2018-06-10T22:23:12.295Z,26.33
2018-06-10T22:25:39.699Z,28.07
2018-06-10T22:28:07.090Z,28.17
2018-06-10T22:30:34.503Z,29.07
2018-06-10T22:33:01.927Z,27.40
2018-06-10T22:35:29.422Z,28.30
2018-06-10T22:37:56.851Z,27.07
2018-06-10T22:40:24.282Z,27.80
2018-06-10T22:42:51.699Z,29.20
2018-06-10T22:45:19.142Z,28.70
2018-06-10T22:47:46.620Z,28.60
2018-06-10T22:50:14.559Z,29.43
2018-06-10T22:52:42.041Z,28.83
2018-06-10T22:55:09.440Z,27.10
2018-06-10T22:57:36.682Z,28.80
2018-06-10T23:00:05.302Z,32.83
2018-06-10T23:02:32.527Z,30.90
2018-06-10T23:04:59.914Z,29.50
2018-06-10T23:07:27.334Z,27.20
2018-06-10T23:09:54.619Z,28.23
2018-06-10T23:12:21.850Z,31.20
2018-06-10T23:14:49.156Z,28.60
2018-06-10T23:17:16.403Z,29.10
2018-06-10T23:19:44.451Z,30.13
2018-06-10T23:22:11.683Z,27.87
2018-06-10T23:24:38.911Z,27.67
2018-06-10T23:27:06.163Z,27.20
2018-06-10T23:29:33.494Z,27.23
2018-06-10T23:32:00.866Z,27.33
2018-06-10T23:34:28.372Z,29.40
2018-06-10T23:36:55.639Z,26.67
2018-06-10T23:42:02.044Z,28.90
2018-06-10T23:44:29.392Z,28.83
2018-06-10T23:46:56.879Z,27.37
2018-06-10T23:49:24.126Z,28.07
2018-06-10T23:51:52.031Z,26.83
2018-06-10T23:54:19.275Z,28.00
2018-06-10T23:56:46.591Z,27.27
2018-06-10T23:59:13.837Z,29.33
